sensor_id;sensor_type;location;lat;lon;timestamp;P1;durP1;ratioP1;P2;durP2;ratioP2
20705;SDS011;10514;49.468;11.044;2024-03-08T00:01:47;19.43;;;12.87;;
20705;SDS011;10514;49.468;11.044;2024-03-08T00:04:13;23.50;;;13.13;;
20705;SDS011;10514;49.468;11.044;2024-03-08T00:06:40;22.30;;;12.80;;
20705;SDS011;10514;49.468;11.044;2024-03-08T00:09:06;20.90;;;13.13;;
20705;SDS011;10514;49.468;11.044;2024-03-08T00:11:33;24.37;;;13.63;;
20705;SDS011;10514;49.468;11.044;2024-03-08T00:14:00;23.27;;;13.03;;
20705;SDS011;10514;49.468;11.044;2024-03-08T00:16:25;21.53;;;12.70;;
20705;SDS011;10514;49.468;11.044;2024-03-08T00:18:51;23.93;;;14.20;;
20705;SDS011;10514;49.468;11.044;2024-03-08T00:21:16;21.43;;;13.13;;
20705;SDS011;10514;49.468;11.044;2024-03-08T00:23:42;24.23;;;13.93;;
20705;SDS011;10514;49.468;11.044;2024-03-08T00:26:08;21.93;;;13.27;;
20705;SDS011;10514;49.468;11.044;2024-03-08T00:28:33;21.00;;;13.00;;
20705;SDS011;10514;49.468;11.044;2024-03-08T00:31:02;23.10;;;13.63;;
20705;SDS011;10514;49.468;11.044;2024-03-08T00:33:28;22.40;;;12.87;;
20705;SDS011;10514;49.468;11.044;2024-03-08T00:35:53;23.07;;;13.20;;
20705;SDS011;10514;49.468;11.044;2024-03-08T00:38:19;25.60;;;13.73;;
20705;SDS011;10514;49.468;11.044;2024-03-08T00:40:45;21.93;;;13.10;;
20705;SDS011;10514;49.468;11.044;2024-03-08T00:43:10;23.77;;;13.60;;
20705;SDS011;10514;49.468;11.044;2024-03-08T00:45:36;22.07;;;12.63;;
20705;SDS011;10514;49.468;11.044;2024-03-08T00:48:07;24.13;;;12.60;;
20705;SDS011;10514;49.468;11.044;2024-03-08T00:50:33;21.10;;;12.70;;
20705;SDS011;10514;49.468;11.044;2024-03-08T00:52:59;23.67;;;13.77;;
20705;SDS011;10514;49.468;11.044;2024-03-08T00:55:25;22.20;;;13.07;;
20705;SDS011;10514;49.468;11.044;2024-03-08T00:57:50;22.23;;;13.37;;
20705;SDS011;10514;49.468;11.044;2024-03-08T01:00:18;20.53;;;13.53;;
20705;SDS011;10514;49.468;11.044;2024-03-08T01:02:46;22.43;;;13.20;;
20705;SDS011;10514;49.468;11.044;2024-03-08T01:05:12;21.53;;;12.73;;
20705;SDS011;10514;49.468;11.044;2024-03-08T01:07:38;21.33;;;12.53;;
20705;SDS011;10514;49.468;11.044;2024-03-08T01:10:04;24.67;;;13.70;;
20705;SDS011;10514;49.468;11.044;2024-03-08T01:12:34;20.95;;;12.95;;
20705;SDS011;10514;49.468;11.044;2024-03-08T01:15:00;22.37;;;13.20;;
20705;SDS011;10514;49.468;11.044;2024-03-08T01:17:25;20.70;;;12.87;;
20705;SDS011;10514;49.468;11.044;2024-03-08T01:19:51;21.90;;;12.97;;
20705;SDS011;10514;49.468;11.044;2024-03-08T01:22:18;22.03;;;12.40;;
20705;SDS011;10514;49.468;11.044;2024-03-08T01:24:44;22.03;;;13.83;;
20705;SDS011;10514;49.468;11.044;2024-03-08T01:27:10;20.17;;;12.97;;
20705;SDS011;10514;49.468;11.044;2024-03-08T01:29:36;22.37;;;13.13;;
20705;SDS011;10514;49.468;11.044;2024-03-08T01:32:02;23.40;;;12.70;;
20705;SDS011;10514;49.468;11.044;2024-03-08T01:34:28;23.30;;;12.30;;
20705;SDS011;10514;49.468;11.044;2024-03-08T01:36:54;25.60;;;13.63;;
20705;SDS011;10514;49.468;11.044;2024-03-08T01:39:21;21.80;;;13.27;;
20705;SDS011;10514;49.468;11.044;2024-03-08T01:41:47;23.03;;;13.17;;
20705;SDS011;10514;49.468;11.044;2024-03-08T01:44:13;21.67;;;12.90;;
20705;SDS011;10514;49.468;11.044;2024-03-08T01:46:42;21.57;;;12.57;;
20705;SDS011;10514;49.468;11.044;2024-03-08T01:49:12;23.95;;;13.07;;
20705;SDS011;10514;49.468;11.044;2024-03-08T01:51:38;22.23;;;13.17;;
20705;SDS011;10514;49.468;11.044;2024-03-08T01:54:06;25.00;;;14.33;;
20705;SDS011;10514;49.468;11.044;2024-03-08T01:56:34;22.10;;;12.53;;
20705;SDS011;10514;49.468;11.044;2024-03-08T01:59:01;23.47;;;13.07;;
20705;SDS011;10514;49.468;11.044;2024-03-08T02:01:28;23.27;;;13.10;;
20705;SDS011;10514;49.468;11.044;2024-03-08T02:03:53;20.90;;;12.67;;
20705;SDS011;10514;49.468;11.044;2024-03-08T02:06:19;20.93;;;12.67;;
20705;SDS011;10514;49.468;11.044;2024-03-08T02:08:45;21.70;;;13.23;;
20705;SDS011;10514;49.468;11.044;2024-03-08T02:11:11;21.60;;;12.97;;
20705;SDS011;10514;49.468;11.044;2024-03-08T02:13:37;20.33;;;12.80;;
20705;SDS011;10514;49.468;11.044;2024-03-08T02:16:03;20.77;;;13.10;;
20705;SDS011;10514;49.468;11.044;2024-03-08T02:18:29;25.47;;;13.43;;
20705;SDS011;10514;49.468;11.044;2024-03-08T02:20:56;23.53;;;13.60;;
20705;SDS011;10514;49.468;11.044;2024-03-08T02:23:25;22.47;;;12.43;;
20705;SDS011;10514;49.468;11.044;2024-03-08T02:25:51;20.60;;;13.40;;
20705;SDS011;10514;49.468;11.044;2024-03-08T02:28:18;22.50;;;13.33;;
20705;SDS011;10514;49.468;11.044;2024-03-08T02:30:45;21.80;;;13.63;;
20705;SDS011;10514;49.468;11.044;2024-03-08T02:33:15;21.92;;;13.15;;
20705;SDS011;10514;49.468;11.044;2024-03-08T02:35:43;22.40;;;13.07;;
20705;SDS011;10514;49.468;11.044;2024-03-08T02:38:16;20.60;;;13.27;;
20705;SDS011;10514;49.468;11.044;2024-03-08T02:40:44;22.67;;;13.17;;
20705;SDS011;10514;49.468;11.044;2024-03-08T02:43:11;22.47;;;13.10;;
20705;SDS011;10514;49.468;11.044;2024-03-08T02:45:37;23.50;;;13.70;;
20705;SDS011;10514;49.468;11.044;2024-03-08T02:48:04;23.40;;;13.27;;
20705;SDS011;10514;49.468;11.044;2024-03-08T02:50:31;21.87;;;12.57;;
20705;SDS011;10514;49.468;11.044;2024-03-08T02:52:57;21.83;;;13.47;;
20705;SDS011;10514;49.468;11.044;2024-03-08T02:55:23;20.87;;;13.10;;
20705;SDS011;10514;49.468;11.044;2024-03-08T02:57:50;22.50;;;12.17;;
20705;SDS011;10514;49.468;11.044;2024-03-08T03:00:17;22.17;;;13.93;;
20705;SDS011;10514;49.468;11.044;2024-03-08T03:02:44;22.83;;;13.73;;
20705;SDS011;10514;49.468;11.044;2024-03-08T03:05:10;24.13;;;13.97;;
20705;SDS011;10514;49.468;11.044;2024-03-08T03:07:36;22.63;;;13.20;;
20705;SDS011;10514;49.468;11.044;2024-03-08T03:10:02;24.33;;;13.80;;
20705;SDS011;10514;49.468;11.044;2024-03-08T03:12:28;21.63;;;12.70;;
20705;SDS011;10514;49.468;11.044;2024-03-08T03:14:54;20.93;;;12.47;;
20705;SDS011;10514;49.468;11.044;2024-03-08T03:17:21;21.70;;;13.03;;
20705;SDS011;10514;49.468;11.044;2024-03-08T03:19:50;22.93;;;13.17;;
20705;SDS011;10514;49.468;11.044;2024-03-08T03:22:16;22.97;;;13.43;;
20705;SDS011;10514;49.468;11.044;2024-03-08T03:24:43;21.43;;;12.90;;
20705;SDS011;10514;49.468;11.044;2024-03-08T03:27:09;21.83;;;12.83;;
20705;SDS011;10514;49.468;11.044;2024-03-08T03:29:40;23.27;;;13.97;;
20705;SDS011;10514;49.468;11.044;2024-03-08T03:32:10;23.47;;;12.57;;
20705;SDS011;10514;49.468;11.044;2024-03-08T03:34:37;22.83;;;13.47;;
20705;SDS011;10514;49.468;11.044;2024-03-08T03:37:03;23.00;;;13.30;;
20705;SDS011;10514;49.468;11.044;2024-03-08T03:39:29;21.67;;;12.97;;
20705;SDS011;10514;49.468;11.044;2024-03-08T03:41:57;21.37;;;12.43;;
20705;SDS011;10514;49.468;11.044;2024-03-08T03:44:27;25.90;;;13.75;;
20705;SDS011;10514;49.468;11.044;2024-03-08T03:46:53;23.37;;;12.70;;
20705;SDS011;10514;49.468;11.044;2024-03-08T03:49:19;22.70;;;13.83;;
20705;SDS011;10514;49.468;11.044;2024-03-08T03:51:44;22.67;;;13.27;;
20705;SDS011;10514;49.468;11.044;2024-03-08T03:54:10;20.67;;;12.77;;
20705;SDS011;10514;49.468;11.044;2024-03-08T03:56:36;24.50;;;14.13;;
20705;SDS011;10514;49.468;11.044;2024-03-08T03:59:02;24.70;;;13.50;;
20705;SDS011;10514;49.468;11.044;2024-03-08T04:01:27;23.40;;;13.27;;
20705;SDS011;10514;49.468;11.044;2024-03-08T04:03:54;23.37;;;14.23;;
20705;SDS011;10514;49.468;11.044;2024-03-08T04:06:20;22.30;;;13.47;;
20705;SDS011;10514;49.468;11.044;2024-03-08T04:08:45;22.57;;;14.00;;
20705;SDS011;10514;49.468;11.044;2024-03-08T04:11:11;23.33;;;13.67;;
20705;SDS011;10514;49.468;11.044;2024-03-08T04:13:36;24.10;;;13.43;;
20705;SDS011;10514;49.468;11.044;2024-03-08T04:16:02;22.97;;;13.23;;
20705;SDS011;10514;49.468;11.044;2024-03-08T04:18:32;22.77;;;12.82;;
20705;SDS011;10514;49.468;11.044;2024-03-08T04:21:00;24.30;;;14.20;;
20705;SDS011;10514;49.468;11.044;2024-03-08T04:23:27;22.90;;;13.33;;
20705;SDS011;10514;49.468;11.044;2024-03-08T04:25:53;25.83;;;13.80;;
20705;SDS011;10514;49.468;11.044;2024-03-08T04:28:19;23.33;;;13.40;;
20705;SDS011;10514;49.468;11.044;2024-03-08T04:30:44;23.43;;;14.20;;
20705;SDS011;10514;49.468;11.044;2024-03-08T04:33:11;24.23;;;14.30;;
20705;SDS011;10514;49.468;11.044;2024-03-08T04:35:36;25.83;;;15.07;;
20705;SDS011;10514;49.468;11.044;2024-03-08T04:38:02;25.17;;;14.57;;
20705;SDS011;10514;49.468;11.044;2024-03-08T04:40:30;24.33;;;15.27;;
20705;SDS011;10514;49.468;11.044;2024-03-08T04:42:56;24.77;;;14.40;;
20705;SDS011;10514;49.468;11.044;2024-03-08T04:45:24;23.67;;;14.90;;
20705;SDS011;10514;49.468;11.044;2024-03-08T04:47:51;23.13;;;14.37;;
20705;SDS011;10514;49.468;11.044;2024-03-08T04:50:17;24.03;;;14.57;;
20705;SDS011;10514;49.468;11.044;2024-03-08T04:52:43;23.77;;;14.47;;
20705;SDS011;10514;49.468;11.044;2024-03-08T04:55:08;25.13;;;14.53;;
20705;SDS011;10514;49.468;11.044;2024-03-08T04:57:34;25.63;;;14.87;;
20705;SDS011;10514;49.468;11.044;2024-03-08T05:00:00;27.63;;;15.50;;
20705;SDS011;10514;49.468;11.044;2024-03-08T05:02:25;24.07;;;15.10;;
20705;SDS011;10514;49.468;11.044;2024-03-08T05:04:51;24.43;;;14.20;;
20705;SDS011;10514;49.468;11.044;2024-03-08T05:07:17;24.13;;;14.60;;
20705;SDS011;10514;49.468;11.044;2024-03-08T05:09:42;24.93;;;14.00;;
20705;SDS011;10514;49.468;11.044;2024-03-08T05:12:08;25.53;;;14.23;;
20705;SDS011;10514;49.468;11.044;2024-03-08T05:14:34;26.87;;;16.13;;
20705;SDS011;10514;49.468;11.044;2024-03-08T05:17:00;23.77;;;14.27;;
20705;SDS011;10514;49.468;11.044;2024-03-08T05:19:25;27.43;;;15.17;;
20705;SDS011;10514;49.468;11.044;2024-03-08T05:21:51;25.30;;;15.33;;
20705;SDS011;10514;49.468;11.044;2024-03-08T05:24:17;25.70;;;15.53;;
20705;SDS011;10514;49.468;11.044;2024-03-08T05:26:42;22.67;;;14.27;;
20705;SDS011;10514;49.468;11.044;2024-03-08T05:29:08;25.33;;;14.90;;
20705;SDS011;10514;49.468;11.044;2024-03-08T05:31:37;24.80;;;15.07;;
20705;SDS011;10514;49.468;11.044;2024-03-08T05:34:14;25.50;;;14.60;;
20705;SDS011;10514;49.468;11.044;2024-03-08T05:36:44;26.80;;;15.20;;
20705;SDS011;10514;49.468;11.044;2024-03-08T05:39:15;25.97;;;15.63;;
20705;SDS011;10514;49.468;11.044;2024-03-08T05:41:42;26.50;;;15.27;;
20705;SDS011;10514;49.468;11.044;2024-03-08T05:44:08;29.63;;;16.90;;
20705;SDS011;10514;49.468;11.044;2024-03-08T05:46:35;43.73;;;23.67;;
20705;SDS011;10514;49.468;11.044;2024-03-08T05:49:02;28.83;;;17.80;;
20705;SDS011;10514;49.468;11.044;2024-03-08T05:51:30;27.83;;;16.80;;
20705;SDS011;10514;49.468;11.044;2024-03-08T05:53:56;30.97;;;17.67;;
20705;SDS011;10514;49.468;11.044;2024-03-08T05:56:23;25.87;;;16.90;;
20705;SDS011;10514;49.468;11.044;2024-03-08T05:58:49;29.63;;;17.30;;
20705;SDS011;10514;49.468;11.044;2024-03-08T06:01:15;31.60;;;17.60;;
20705;SDS011;10514;49.468;11.044;2024-03-08T06:03:40;27.97;;;17.63;;
20705;SDS011;10514;49.468;11.044;2024-03-08T06:06:11;27.67;;;15.97;;
20705;SDS011;10514;49.468;11.044;2024-03-08T06:08:37;30.97;;;18.43;;
20705;SDS011;10514;49.468;11.044;2024-03-08T06:11:03;27.73;;;16.67;;
20705;SDS011;10514;49.468;11.044;2024-03-08T06:13:29;28.00;;;16.37;;
20705;SDS011;10514;49.468;11.044;2024-03-08T06:15:56;30.60;;;17.40;;
20705;SDS011;10514;49.468;11.044;2024-03-08T06:18:21;31.60;;;17.77;;
20705;SDS011;10514;49.468;11.044;2024-03-08T06:20:47;28.10;;;16.87;;
20705;SDS011;10514;49.468;11.044;2024-03-08T06:23:13;30.63;;;18.67;;
20705;SDS011;10514;49.468;11.044;2024-03-08T06:25:42;28.77;;;17.60;;
20705;SDS011;10514;49.468;11.044;2024-03-08T06:28:08;26.43;;;16.93;;
20705;SDS011;10514;49.468;11.044;2024-03-08T06:30:34;28.60;;;17.60;;
20705;SDS011;10514;49.468;11.044;2024-03-08T06:32:59;30.07;;;17.17;;
20705;SDS011;10514;49.468;11.044;2024-03-08T06:35:25;30.33;;;17.40;;
20705;SDS011;10514;49.468;11.044;2024-03-08T06:37:51;28.20;;;16.87;;
20705;SDS011;10514;49.468;11.044;2024-03-08T06:40:16;32.33;;;18.27;;
20705;SDS011;10514;49.468;11.044;2024-03-08T06:42:42;29.53;;;17.17;;
20705;SDS011;10514;49.468;11.044;2024-03-08T06:45:08;29.80;;;17.57;;
20705;SDS011;10514;49.468;11.044;2024-03-08T06:47:35;30.53;;;17.73;;
20705;SDS011;10514;49.468;11.044;2024-03-08T06:50:00;29.73;;;17.53;;
20705;SDS011;10514;49.468;11.044;2024-03-08T06:52:26;30.43;;;17.27;;
20705;SDS011;10514;49.468;11.044;2024-03-08T06:54:52;31.07;;;17.13;;
20705;SDS011;10514;49.468;11.044;2024-03-08T06:57:18;31.73;;;17.63;;
20705;SDS011;10514;49.468;11.044;2024-03-08T06:59:46;32.57;;;18.43;;
20705;SDS011;10514;49.468;11.044;2024-03-08T07:02:12;28.80;;;17.80;;
20705;SDS011;10514;49.468;11.044;2024-03-08T07:04:38;32.47;;;18.03;;
20705;SDS011;10514;49.468;11.044;2024-03-08T07:07:04;30.40;;;17.93;;
20705;SDS011;10514;49.468;11.044;2024-03-08T07:09:30;27.07;;;17.17;;
20705;SDS011;10514;49.468;11.044;2024-03-08T07:11:55;31.07;;;17.40;;
20705;SDS011;10514;49.468;11.044;2024-03-08T07:14:21;28.67;;;17.53;;
20705;SDS011;10514;49.468;11.044;2024-03-08T07:16:47;31.80;;;18.73;;
20705;SDS011;10514;49.468;11.044;2024-03-08T07:19:13;31.50;;;18.50;;
20705;SDS011;10514;49.468;11.044;2024-03-08T07:21:40;32.20;;;17.53;;
20705;SDS011;10514;49.468;11.044;2024-03-08T07:24:06;31.70;;;17.63;;
20705;SDS011;10514;49.468;11.044;2024-03-08T07:26:51;32.93;;;18.63;;
20705;SDS011;10514;49.468;11.044;2024-03-08T07:29:17;32.47;;;17.00;;
20705;SDS011;10514;49.468;11.044;2024-03-08T07:31:44;30.67;;;17.43;;
20705;SDS011;10514;49.468;11.044;2024-03-08T07:34:15;29.97;;;17.23;;
20705;SDS011;10514;49.468;11.044;2024-03-08T07:36:41;31.03;;;17.13;;
20705;SDS011;10514;49.468;11.044;2024-03-08T07:39:07;28.67;;;16.27;;
20705;SDS011;10514;49.468;11.044;2024-03-08T07:41:40;27.17;;;15.70;;
20705;SDS011;10514;49.468;11.044;2024-03-08T07:44:08;27.20;;;14.63;;
20705;SDS011;10514;49.468;11.044;2024-03-08T07:46:34;26.60;;;15.57;;
20705;SDS011;10514;49.468;11.044;2024-03-08T07:48:59;25.00;;;15.27;;
20705;SDS011;10514;49.468;11.044;2024-03-08T07:51:25;24.83;;;14.67;;
20705;SDS011;10514;49.468;11.044;2024-03-08T07:53:51;24.03;;;15.53;;
20705;SDS011;10514;49.468;11.044;2024-03-08T07:56:17;25.00;;;15.87;;
20705;SDS011;10514;49.468;11.044;2024-03-08T07:58:44;23.53;;;15.73;;
20705;SDS011;10514;49.468;11.044;2024-03-08T08:01:16;24.60;;;15.70;;
20705;SDS011;10514;49.468;11.044;2024-03-08T08:03:43;23.77;;;15.10;;
20705;SDS011;10514;49.468;11.044;2024-03-08T08:06:08;22.60;;;15.23;;
20705;SDS011;10514;49.468;11.044;2024-03-08T08:08:34;22.87;;;14.57;;
20705;SDS011;10514;49.468;11.044;2024-03-08T08:11:01;22.47;;;15.07;;
20705;SDS011;10514;49.468;11.044;2024-03-08T08:13:27;22.13;;;15.03;;
20705;SDS011;10514;49.468;11.044;2024-03-08T08:15:57;24.43;;;15.90;;
20705;SDS011;10514;49.468;11.044;2024-03-08T08:18:23;20.87;;;15.10;;
20705;SDS011;10514;49.468;11.044;2024-03-08T08:20:50;21.80;;;14.93;;
20705;SDS011;10514;49.468;11.044;2024-03-08T08:23:17;23.03;;;14.73;;
20705;SDS011;10514;49.468;11.044;2024-03-08T08:25:44;22.43;;;15.13;;
20705;SDS011;10514;49.468;11.044;2024-03-08T08:28:10;23.63;;;15.80;;
20705;SDS011;10514;49.468;11.044;2024-03-08T08:30:38;24.63;;;15.53;;
20705;SDS011;10514;49.468;11.044;2024-03-08T08:33:03;22.40;;;14.70;;
20705;SDS011;10514;49.468;11.044;2024-03-08T08:35:30;22.88;;;14.93;;
20705;SDS011;10514;49.468;11.044;2024-03-08T08:37:57;23.33;;;15.02;;
20705;SDS011;10514;49.468;11.044;2024-03-08T08:40:23;25.63;;;15.45;;
20705;SDS011;10514;49.468;11.044;2024-03-08T08:42:50;23.92;;;15.70;;
20705;SDS011;10514;49.468;11.044;2024-03-08T08:45:18;21.73;;;14.70;;
20705;SDS011;10514;49.468;11.044;2024-03-08T08:47:44;21.80;;;14.80;;
20705;SDS011;10514;49.468;11.044;2024-03-08T08:50:11;20.42;;;14.65;;
20705;SDS011;10514;49.468;11.044;2024-03-08T08:52:38;20.50;;;13.23;;
20705;SDS011;10514;49.468;11.044;2024-03-08T08:55:04;20.23;;;13.02;;
20705;SDS011;10514;49.468;11.044;2024-03-08T08:57:31;18.55;;;12.52;;
20705;SDS011;10514;49.468;11.044;2024-03-08T08:59:58;19.13;;;12.00;;
20705;SDS011;10514;49.468;11.044;2024-03-08T09:02:25;19.60;;;12.82;;
20705;SDS011;10514;49.468;11.044;2024-03-08T09:04:51;17.90;;;11.85;;
20705;SDS011;10514;49.468;11.044;2024-03-08T09:07:16;19.30;;;11.30;;
20705;SDS011;10514;49.468;11.044;2024-03-08T09:09:44;19.15;;;11.88;;
20705;SDS011;10514;49.468;11.044;2024-03-08T09:12:10;16.73;;;11.60;;
20705;SDS011;10514;49.468;11.044;2024-03-08T09:14:39;16.90;;;11.10;;
20705;SDS011;10514;49.468;11.044;2024-03-08T09:17:05;17.85;;;11.27;;
20705;SDS011;10514;49.468;11.044;2024-03-08T09:19:34;18.88;;;11.05;;
20705;SDS011;10514;49.468;11.044;2024-03-08T09:22:00;17.33;;;11.45;;
20705;SDS011;10514;49.468;11.044;2024-03-08T09:24:25;16.25;;;10.50;;
20705;SDS011;10514;49.468;11.044;2024-03-08T09:26:51;16.88;;;10.93;;
20705;SDS011;10514;49.468;11.044;2024-03-08T09:29:17;16.77;;;11.20;;
20705;SDS011;10514;49.468;11.044;2024-03-08T09:31:42;15.75;;;10.73;;
20705;SDS011;10514;49.468;11.044;2024-03-08T09:34:09;16.02;;;10.93;;
20705;SDS011;10514;49.468;11.044;2024-03-08T09:36:35;16.33;;;10.38;;
20705;SDS011;10514;49.468;11.044;2024-03-08T09:39:00;16.17;;;10.80;;
20705;SDS011;10514;49.468;11.044;2024-03-08T09:41:26;16.23;;;11.00;;
20705;SDS011;10514;49.468;11.044;2024-03-08T09:43:52;16.02;;;10.55;;
20705;SDS011;10514;49.468;11.044;2024-03-08T09:46:18;14.82;;;10.65;;
20705;SDS011;10514;49.468;11.044;2024-03-08T09:48:45;14.57;;;10.70;;
20705;SDS011;10514;49.468;11.044;2024-03-08T09:51:11;16.33;;;10.85;;
20705;SDS011;10514;49.468;11.044;2024-03-08T09:53:40;16.80;;;11.48;;
20705;SDS011;10514;49.468;11.044;2024-03-08T09:56:07;15.82;;;10.82;;
20705;SDS011;10514;49.468;11.044;2024-03-08T09:58:33;15.88;;;10.52;;
20705;SDS011;10514;49.468;11.044;2024-03-08T10:03:28;16.02;;;10.25;;
20705;SDS011;10514;49.468;11.044;2024-03-08T10:05:55;16.98;;;10.52;;
20705;SDS011;10514;49.468;11.044;2024-03-08T10:10:56;15.55;;;9.60;;
20705;SDS011;10514;49.468;11.044;2024-03-08T10:13:25;15.05;;;10.70;;
20705;SDS011;10514;49.468;11.044;2024-03-08T10:15:55;15.10;;;10.82;;
20705;SDS011;10514;49.468;11.044;2024-03-08T10:18:21;15.32;;;9.98;;
20705;SDS011;10514;49.468;11.044;2024-03-08T10:21:01;16.55;;;9.98;;
20705;SDS011;10514;49.468;11.044;2024-03-08T10:23:32;14.80;;;9.77;;
20705;SDS011;10514;49.468;11.044;2024-03-08T10:26:02;14.45;;;9.68;;
20705;SDS011;10514;49.468;11.044;2024-03-08T10:28:44;15.25;;;10.50;;
20705;SDS011;10514;49.468;11.044;2024-03-08T10:31:12;16.77;;;9.45;;
20705;SDS011;10514;49.468;11.044;2024-03-08T10:33:40;15.65;;;10.07;;
20705;SDS011;10514;49.468;11.044;2024-03-08T10:36:09;13.27;;;8.63;;
20705;SDS011;10514;49.468;11.044;2024-03-08T10:38:38;14.77;;;10.17;;
20705;SDS011;10514;49.468;11.044;2024-03-08T10:41:05;12.77;;;8.77;;
20705;SDS011;10514;49.468;11.044;2024-03-08T10:43:32;12.00;;;8.55;;
20705;SDS011;10514;49.468;11.044;2024-03-08T10:46:16;13.07;;;8.90;;
20705;SDS011;10514;49.468;11.044;2024-03-08T10:48:51;13.88;;;8.48;;
20705;SDS011;10514;49.468;11.044;2024-03-08T10:51:20;13.85;;;8.90;;
20705;SDS011;10514;49.468;11.044;2024-03-08T10:53:46;11.45;;;7.65;;
20705;SDS011;10514;49.468;11.044;2024-03-08T10:56:13;13.13;;;8.00;;
20705;SDS011;10514;49.468;11.044;2024-03-08T10:58:39;13.93;;;9.13;;
20705;SDS011;10514;49.468;11.044;2024-03-08T11:01:06;12.00;;;7.60;;
20705;SDS011;10514;49.468;11.044;2024-03-08T11:06:17;12.50;;;8.43;;
20705;SDS011;10514;49.468;11.044;2024-03-08T11:08:46;13.88;;;8.52;;
20705;SDS011;10514;49.468;11.044;2024-03-08T11:13:57;11.43;;;7.65;;
20705;SDS011;10514;49.468;11.044;2024-03-08T11:18:55;11.82;;;7.60;;
20705;SDS011;10514;49.468;11.044;2024-03-08T11:21:29;11.38;;;7.60;;
20705;SDS011;10514;49.468;11.044;2024-03-08T11:24:11;11.10;;;7.50;;
20705;SDS011;10514;49.468;11.044;2024-03-08T11:26:38;12.10;;;7.38;;
20705;SDS011;10514;49.468;11.044;2024-03-08T11:34:45;9.57;;;6.20;;
20705;SDS011;10514;49.468;11.044;2024-03-08T11:37:19;11.40;;;6.93;;
20705;SDS011;10514;49.468;11.044;2024-03-08T11:39:48;11.27;;;7.33;;
20705;SDS011;10514;49.468;11.044;2024-03-08T11:42:18;12.23;;;7.03;;
20705;SDS011;10514;49.468;11.044;2024-03-08T11:44:47;12.40;;;7.20;;
20705;SDS011;10514;49.468;11.044;2024-03-08T11:47:15;11.83;;;6.90;;
20705;SDS011;10514;49.468;11.044;2024-03-08T11:49:41;10.07;;;6.67;;
20705;SDS011;10514;49.468;11.044;2024-03-08T11:52:12;11.87;;;6.97;;
20705;SDS011;10514;49.468;11.044;2024-03-08T11:54:39;12.40;;;6.73;;
20705;SDS011;10514;49.468;11.044;2024-03-08T11:57:16;11.30;;;7.10;;
20705;SDS011;10514;49.468;11.044;2024-03-08T11:59:49;9.70;;;6.47;;
20705;SDS011;10514;49.468;11.044;2024-03-08T12:02:17;11.97;;;7.03;;
20705;SDS011;10514;49.468;11.044;2024-03-08T12:04:44;10.17;;;6.63;;
20705;SDS011;10514;49.468;11.044;2024-03-08T12:07:11;9.47;;;6.10;;
20705;SDS011;10514;49.468;11.044;2024-03-08T12:09:39;10.33;;;6.60;;
20705;SDS011;10514;49.468;11.044;2024-03-08T12:12:06;11.20;;;7.30;;
20705;SDS011;10514;49.468;11.044;2024-03-08T12:14:33;10.60;;;7.20;;
20705;SDS011;10514;49.468;11.044;2024-03-08T12:16:59;11.17;;;6.43;;
20705;SDS011;10514;49.468;11.044;2024-03-08T12:19:26;10.07;;;6.40;;
20705;SDS011;10514;49.468;11.044;2024-03-08T12:21:54;11.13;;;6.30;;
20705;SDS011;10514;49.468;11.044;2024-03-08T12:24:20;11.33;;;5.77;;
20705;SDS011;10514;49.468;11.044;2024-03-08T12:26:46;11.17;;;6.53;;
20705;SDS011;10514;49.468;11.044;2024-03-08T12:31:55;9.97;;;6.10;;
20705;SDS011;10514;49.468;11.044;2024-03-08T12:34:26;10.80;;;5.97;;
20705;SDS011;10514;49.468;11.044;2024-03-08T12:36:53;12.60;;;6.40;;
20705;SDS011;10514;49.468;11.044;2024-03-08T12:39:20;9.47;;;6.10;;
20705;SDS011;10514;49.468;11.044;2024-03-08T12:41:55;9.57;;;5.97;;
20705;SDS011;10514;49.468;11.044;2024-03-08T12:44:27;10.43;;;6.13;;
20705;SDS011;10514;49.468;11.044;2024-03-08T12:46:53;9.03;;;6.10;;
20705;SDS011;10514;49.468;11.044;2024-03-08T12:49:19;9.40;;;5.93;;
20705;SDS011;10514;49.468;11.044;2024-03-08T12:51:47;11.13;;;6.47;;
20705;SDS011;10514;49.468;11.044;2024-03-08T12:54:13;11.40;;;6.93;;
20705;SDS011;10514;49.468;11.044;2024-03-08T12:56:39;10.03;;;6.07;;
20705;SDS011;10514;49.468;11.044;2024-03-08T12:59:05;9.33;;;5.97;;
20705;SDS011;10514;49.468;11.044;2024-03-08T13:01:35;11.10;;;6.45;;
20705;SDS011;10514;49.468;11.044;2024-03-08T13:04:03;10.33;;;6.53;;
20705;SDS011;10514;49.468;11.044;2024-03-08T13:06:31;11.50;;;6.87;;
20705;SDS011;10514;49.468;11.044;2024-03-08T13:08:57;9.75;;;5.93;;
20705;SDS011;10514;49.468;11.044;2024-03-08T13:11:24;11.33;;;6.83;;
20705;SDS011;10514;49.468;11.044;2024-03-08T13:13:50;10.27;;;6.57;;
20705;SDS011;10514;49.468;11.044;2024-03-08T13:16:16;10.10;;;6.70;;
20705;SDS011;10514;49.468;11.044;2024-03-08T13:18:43;9.13;;;5.53;;
20705;SDS011;10514;49.468;11.044;2024-03-08T13:21:10;9.70;;;5.28;;
20705;SDS011;10514;49.468;11.044;2024-03-08T13:23:37;8.00;;;5.47;;
20705;SDS011;10514;49.468;11.044;2024-03-08T13:26:08;9.23;;;5.97;;
20705;SDS011;10514;49.468;11.044;2024-03-08T13:28:43;9.15;;;5.57;;
20705;SDS011;10514;49.468;11.044;2024-03-08T13:31:10;7.90;;;5.15;;
20705;SDS011;10514;49.468;11.044;2024-03-08T13:33:36;9.45;;;5.55;;
20705;SDS011;10514;49.468;11.044;2024-03-08T13:36:04;10.52;;;6.43;;
20705;SDS011;10514;49.468;11.044;2024-03-08T13:38:34;11.77;;;6.40;;
20705;SDS011;10514;49.468;11.044;2024-03-08T13:41:02;12.30;;;8.00;;
20705;SDS011;10514;49.468;11.044;2024-03-08T13:43:28;26.65;;;14.35;;
20705;SDS011;10514;49.468;11.044;2024-03-08T13:45:54;26.70;;;14.18;;
20705;SDS011;10514;49.468;11.044;2024-03-08T13:48:20;14.60;;;9.30;;
20705;SDS011;10514;49.468;11.044;2024-03-08T13:50:47;12.90;;;8.38;;
20705;SDS011;10514;49.468;11.044;2024-03-08T13:53:14;13.32;;;8.50;;
20705;SDS011;10514;49.468;11.044;2024-03-08T13:55:40;13.50;;;8.68;;
20705;SDS011;10514;49.468;11.044;2024-03-08T13:58:06;11.93;;;7.55;;
20705;SDS011;10514;49.468;11.044;2024-03-08T14:00:34;13.00;;;8.25;;
20705;SDS011;10514;49.468;11.044;2024-03-08T14:03:01;12.55;;;7.97;;
20705;SDS011;10514;49.468;11.044;2024-03-08T14:05:30;11.93;;;8.20;;
20705;SDS011;10514;49.468;11.044;2024-03-08T14:07:59;14.73;;;8.20;;
20705;SDS011;10514;49.468;11.044;2024-03-08T14:10:28;11.75;;;7.70;;
20705;SDS011;10514;49.468;11.044;2024-03-08T14:12:56;12.85;;;8.30;;
20705;SDS011;10514;49.468;11.044;2024-03-08T14:15:22;12.93;;;7.97;;
20705;SDS011;10514;49.468;11.044;2024-03-08T14:17:54;12.30;;;8.38;;
20705;SDS011;10514;49.468;11.044;2024-03-08T14:20:20;12.65;;;8.30;;
20705;SDS011;10514;49.468;11.044;2024-03-08T14:22:53;11.20;;;7.83;;
20705;SDS011;10514;49.468;11.044;2024-03-08T14:25:20;14.23;;;7.95;;
20705;SDS011;10514;49.468;11.044;2024-03-08T14:27:48;12.07;;;7.95;;
20705;SDS011;10514;49.468;11.044;2024-03-08T14:30:14;11.27;;;7.32;;
20705;SDS011;10514;49.468;11.044;2024-03-08T14:32:56;14.18;;;9.25;;
20705;SDS011;10514;49.468;11.044;2024-03-08T14:35:34;15.57;;;10.40;;